createdAt,value
2019-01-21T00:00:11.106Z,78.05
2019-01-21T00:00:37.233Z,78.23
2019-01-21T00:01:03.791Z,78.23
2019-01-21T00:01:29.900Z,78.14
2019-01-21T00:01:56.003Z,78.05
2019-01-21T00:02:22.126Z,78.52
2019-01-21T00:02:48.262Z,78.33
2019-01-21T00:03:14.942Z,78.05
2019-01-21T00:03:41.020Z,77.95
2019-01-21T00:04:07.152Z,78.05
2019-01-21T00:04:33.252Z,77.86
2019-01-21T00:04:59.358Z,77.76
2019-01-21T00:05:25.455Z,78.05
2019-01-21T00:05:51.551Z,77.86
2019-01-21T00:06:17.660Z,78.05
2019-01-21T00:06:43.767Z,78.05
2019-01-21T00:07:09.868Z,77.67
2019-01-21T00:07:35.966Z,77.67
2019-01-21T00:08:02.074Z,78.42
2019-01-21T00:08:28.182Z,78.23
2019-01-21T00:08:54.307Z,78.23
2019-01-21T00:09:20.428Z,78.33
2019-01-21T00:09:46.512Z,78.23
2019-01-21T00:10:12.607Z,78.33
2019-01-21T00:10:38.744Z,78.14
2019-01-21T00:11:04.851Z,78.23
2019-01-21T00:11:30.955Z,78.05
2019-01-21T00:11:57.060Z,77.76
2019-01-21T00:12:23.149Z,78.05
2019-01-21T00:12:49.241Z,77.95
2019-01-21T00:13:15.329Z,77.58
2019-01-21T00:13:41.419Z,78.23
2019-01-21T00:14:07.508Z,78.33
2019-01-21T00:14:33.599Z,78.42
2019-01-21T00:14:59.686Z,78.14
2019-01-21T00:15:25.777Z,78.14
2019-01-21T00:15:51.966Z,78.05
2019-01-21T00:16:18.060Z,78.05
2019-01-21T00:16:44.148Z,77.95
2019-01-21T00:17:10.244Z,77.95
2019-01-21T00:17:37.343Z,77.95
2019-01-21T00:18:03.473Z,78.05
2019-01-21T00:18:29.562Z,77.58
2019-01-21T00:18:55.667Z,77.67
2019-01-21T00:19:21.772Z,77.67
2019-01-21T00:19:47.869Z,77.67
2019-01-21T00:20:13.971Z,77.48
2019-01-21T00:20:40.074Z,77.29
2019-01-21T00:21:06.207Z,77.48
2019-01-21T00:21:32.337Z,77.67
2019-01-21T00:21:58.441Z,77.67
2019-01-21T00:22:24.540Z,77.67
2019-01-21T00:22:50.641Z,77.39
2019-01-21T00:23:16.772Z,77.58
2019-01-21T00:23:42.878Z,77.67
2019-01-21T00:24:08.980Z,77.67
2019-01-21T00:24:35.083Z,77.67
2019-01-21T00:25:01.195Z,77.67
2019-01-21T00:25:27.307Z,77.86
2019-01-21T00:25:53.416Z,77.76
2019-01-21T00:26:19.534Z,77.76
2019-01-21T00:26:45.617Z,77.58
2019-01-21T00:27:11.725Z,78.05
2019-01-21T00:27:37.824Z,78.23
2019-01-21T00:28:03.951Z,78.05
2019-01-21T00:28:30.633Z,78.14
2019-01-21T00:28:56.732Z,78.23
2019-01-21T00:29:22.829Z,78.23
2019-01-21T00:29:48.957Z,78.14
2019-01-21T00:30:15.084Z,77.48
2019-01-21T00:30:41.195Z,77.58
2019-01-21T00:31:07.294Z,77.76
2019-01-21T00:31:33.396Z,77.67
2019-01-21T00:31:59.527Z,78.23
2019-01-21T00:32:25.629Z,77.95
2019-01-21T00:32:51.733Z,78.14
2019-01-21T00:33:17.837Z,77.95
2019-01-21T00:33:43.959Z,78.05
2019-01-21T00:34:10.069Z,78.05
2019-01-21T00:34:36.171Z,77.95
2019-01-21T00:35:02.269Z,77.76
2019-01-21T00:35:28.371Z,77.67
2019-01-21T00:35:54.480Z,77.67
2019-01-21T00:36:20.588Z,77.67
2019-01-21T00:36:46.693Z,77.95
2019-01-21T00:37:13.809Z,78.14
2019-01-21T00:37:39.911Z,77.95
2019-01-21T00:38:06.012Z,78.14
2019-01-21T00:38:32.116Z,78.05
2019-01-21T00:38:58.221Z,77.58
2019-01-21T00:39:24.319Z,77.67
2019-01-21T00:39:50.448Z,77.48
2019-01-21T00:40:16.550Z,77.39
2019-01-21T00:40:42.647Z,77.48
2019-01-21T00:41:08.754Z,77.48
2019-01-21T00:41:34.852Z,77.58
2019-01-21T00:42:00.962Z,77.67
2019-01-21T00:42:27.061Z,77.48
2019-01-21T00:42:53.162Z,77.48
2019-01-21T00:43:19.262Z,77.48
2019-01-21T00:43:45.364Z,77.48
2019-01-21T00:44:11.465Z,77.48
2019-01-21T00:44:37.573Z,77.29
2019-01-21T00:45:03.698Z,77.67
2019-01-21T00:45:29.803Z,77.48
2019-01-21T00:45:55.907Z,77.29
2019-01-21T00:46:22.032Z,77.67
2019-01-21T00:46:48.138Z,77.67
2019-01-21T00:47:14.236Z,77.58
2019-01-21T00:47:41.326Z,77.67
2019-01-21T00:48:07.428Z,77.76
2019-01-21T00:48:33.539Z,77.58
2019-01-21T00:48:59.638Z,77.95
2019-01-21T00:49:25.750Z,78.14
2019-01-21T00:49:51.907Z,78.05
2019-01-21T00:50:18.040Z,77.86
2019-01-21T00:50:44.146Z,77.95
2019-01-21T00:51:10.278Z,77.95
2019-01-21T00:51:36.374Z,78.14
2019-01-21T00:52:02.509Z,77.58
2019-01-21T00:52:28.608Z,77.67
2019-01-21T00:52:54.711Z,77.67
2019-01-21T00:53:20.837Z,77.58
2019-01-21T00:53:46.938Z,78.05
2019-01-21T00:54:13.044Z,78.14
2019-01-21T00:54:39.149Z,77.95
2019-01-21T00:55:06.242Z,78.05
2019-01-21T00:55:32.342Z,77.95
2019-01-21T00:55:58.451Z,77.95
2019-01-21T00:56:24.581Z,77.95
2019-01-21T00:56:50.689Z,78.14
2019-01-21T00:57:16.794Z,77.95
2019-01-21T00:57:42.900Z,78.05
2019-01-21T00:58:08.994Z,77.95
2019-01-21T00:58:35.102Z,78.23
2019-01-21T00:59:01.203Z,78.61
2019-01-21T00:59:27.310Z,78.71
2019-01-21T00:59:53.410Z,78.33
2019-01-21T01:00:19.513Z,78.8
2019-01-21T01:00:45.812Z,78.61
2019-01-21T01:01:11.943Z,79.18
2019-01-21T01:01:38.040Z,79.09
2019-01-21T01:02:04.146Z,78.8
2019-01-21T01:02:30.246Z,78.99
2019-01-21T01:02:56.357Z,78.99
2019-01-21T01:03:22.457Z,79.09
2019-01-21T01:03:48.563Z,79.28
2019-01-21T01:04:14.696Z,79.28
2019-01-21T01:04:40.798Z,79.28
2019-01-21T01:05:06.897Z,79.09
2019-01-21T01:05:32.993Z,79.28
2019-01-21T01:05:59.099Z,79.18
2019-01-21T01:06:25.200Z,79.18
2019-01-21T01:06:51.298Z,79.56
2019-01-21T01:07:17.405Z,79.75
2019-01-21T01:07:43.532Z,79.75
2019-01-21T01:08:09.657Z,79.75
2019-01-21T01:08:35.823Z,79.47
2019-01-21T01:09:01.925Z,79.75
2019-01-21T01:09:28.023Z,79.85
2019-01-21T01:09:54.117Z,79.37
2019-01-21T01:10:20.225Z,78.99
2019-01-21T01:10:46.329Z,79.28
2019-01-21T01:11:12.429Z,79.28
2019-01-21T01:11:38.538Z,79.47
2019-01-21T01:12:04.636Z,79.28
2019-01-21T01:12:30.768Z,79.37
2019-01-21T01:12:56.863Z,79.37
2019-01-21T01:13:23.000Z,79.18
2019-01-21T01:13:49.131Z,78.99
2019-01-21T01:14:15.234Z,78.99
2019-01-21T01:14:41.333Z,79.28
2019-01-21T01:15:07.433Z,79.47
2019-01-21T01:15:33.534Z,79.37
2019-01-21T01:15:59.713Z,79.37
2019-01-21T01:16:25.794Z,79.37
2019-01-21T01:16:51.896Z,79.09
2019-01-21T01:17:17.998Z,79.28
2019-01-21T01:17:45.116Z,79.09
2019-01-21T01:18:11.221Z,79.28
2019-01-21T01:18:37.321Z,79.37
2019-01-21T01:19:03.422Z,79.28
2019-01-21T01:19:29.525Z,79.09
2019-01-21T01:19:55.628Z,79.47
2019-01-21T01:20:21.764Z,79.56
2019-01-21T01:20:47.870Z,79.09
2019-01-21T01:21:13.969Z,79.56
2019-01-21T01:21:40.072Z,78.99
2019-01-21T01:22:06.174Z,79.28
2019-01-21T01:22:32.276Z,78.61
2019-01-21T01:22:58.413Z,78.8
2019-01-21T01:23:24.518Z,79.09
2019-01-21T01:23:50.618Z,79.28
2019-01-21T01:24:16.721Z,78.99
2019-01-21T01:24:42.853Z,78.9
2019-01-21T01:25:08.976Z,78.71
2019-01-21T01:25:35.082Z,78.71
2019-01-21T01:26:01.218Z,78.71
2019-01-21T01:26:27.320Z,79.09
2019-01-21T01:26:53.433Z,79.28
2019-01-21T01:27:19.547Z,79.28
2019-01-21T01:27:45.646Z,79.37
2019-01-21T01:28:11.750Z,79.37
2019-01-21T01:28:37.875Z,79.28
2019-01-21T01:29:03.973Z,78.71
2019-01-21T01:29:30.075Z,78.9
2019-01-21T01:29:56.209Z,78.8
2019-01-21T01:30:22.340Z,78.52
2019-01-21T01:30:48.438Z,78.9
2019-01-21T01:31:14.544Z,78.9
2019-01-21T01:31:40.646Z,78.8
2019-01-21T01:32:06.744Z,78.99
2019-01-21T01:32:32.830Z,78.8
2019-01-21T01:32:58.969Z,78.61
2019-01-21T01:33:25.068Z,78.8
2019-01-21T01:33:51.158Z,78.99
2019-01-21T01:34:17.242Z,78.52
2019-01-21T01:34:43.360Z,78.71
2019-01-21T01:35:09.448Z,78.52
2019-01-21T01:35:35.531Z,78.71
2019-01-21T01:36:01.626Z,78.71
2019-01-21T01:36:27.717Z,78.8
2019-01-21T01:36:53.802Z,78.8
2019-01-21T01:37:19.890Z,79.09
2019-01-21T01:37:45.984Z,78.71
2019-01-21T01:38:12.090Z,78.99
2019-01-21T01:38:38.184Z,78.8
2019-01-21T01:39:04.292Z,78.99
2019-01-21T01:39:30.390Z,79.09
2019-01-21T01:39:56.481Z,78.8
2019-01-21T01:40:22.585Z,78.71
2019-01-21T01:40:48.689Z,78.8
2019-01-21T01:41:14.797Z,78.9
2019-01-21T01:41:40.896Z,78.9
2019-01-21T01:42:07.504Z,78.9
2019-01-21T01:42:33.614Z,78.61
2019-01-21T01:42:59.714Z,78.71
2019-01-21T01:43:25.905Z,78.8
2019-01-21T01:43:52.011Z,78.8
2019-01-21T01:44:18.411Z,78.71
2019-01-21T01:44:44.542Z,78.71
2019-01-21T01:45:10.644Z,78.33
2019-01-21T01:45:37.091Z,78.33
2019-01-21T01:46:03.190Z,78.23
2019-01-21T01:46:29.292Z,78.14
2019-01-21T01:46:55.627Z,78.33
2019-01-21T01:47:21.714Z,78.61
2019-01-21T01:47:49.802Z,78.52
2019-01-21T01:48:15.905Z,78.71
2019-01-21T01:48:42.008Z,78.23
2019-01-21T01:49:08.315Z,78.23
2019-01-21T01:49:34.412Z,78.71
2019-01-21T01:50:00.776Z,78.33
2019-01-21T01:50:26.887Z,78.42
2019-01-21T01:50:52.991Z,78.42
2019-01-21T01:51:19.260Z,77.95
2019-01-21T01:51:45.358Z,78.23
2019-01-21T01:52:11.461Z,78.05
2019-01-21T01:52:37.784Z,77.63
2019-01-21T01:53:03.881Z,77.76
2019-01-21T01:53:30.117Z,77.58
2019-01-21T01:53:56.218Z,77.53
2019-01-21T01:54:22.362Z,78.01
2019-01-21T01:54:48.691Z,77.82
2019-01-21T01:55:14.794Z,78.33
2019-01-21T01:55:40.987Z,78.58
2019-01-21T01:56:07.139Z,78.52
2019-01-21T01:56:33.237Z,78.23
2019-01-21T01:56:59.522Z,78.29
2019-01-21T01:57:25.623Z,78.48
2019-01-21T01:57:51.762Z,78.39
2019-01-21T01:58:17.907Z,78.2
2019-01-21T01:58:44.016Z,77.53
2019-01-21T01:59:10.237Z,77.91
2019-01-21T01:59:36.337Z,78.1
2019-01-21T02:00:02.440Z,77.91
2019-01-21T02:00:28.668Z,78.01
2019-01-21T02:00:54.771Z,77.82
2019-01-21T02:01:21.044Z,78.58
2019-01-21T02:01:47.175Z,78.67
2019-01-21T02:02:13.279Z,78.58
2019-01-21T02:02:39.566Z,78.48
2019-01-21T02:03:05.668Z,78.48
2019-01-21T02:03:31.772Z,78.2
2019-01-21T02:03:58.094Z,78.29
2019-01-21T02:04:24.204Z,78.48
2019-01-21T02:04:50.602Z,78.39
2019-01-21T02:05:16.702Z,78.58
2019-01-21T02:05:42.803Z,78.39
2019-01-21T02:06:09.467Z,78.2
2019-01-21T02:06:35.567Z,78.39
2019-01-21T02:07:02.095Z,78.1
2019-01-21T02:07:28.219Z,78.39
2019-01-21T02:07:54.318Z,78.39
2019-01-21T02:08:20.661Z,78.1
2019-01-21T02:08:46.771Z,78.1
2019-01-21T02:09:13.094Z,78.29
2019-01-21T02:09:39.342Z,78.29
2019-01-21T02:10:05.446Z,78.58
2019-01-21T02:10:31.816Z,78.76
2019-01-21T02:10:57.920Z,78.2
2019-01-21T02:11:24.030Z,78.2
2019-01-21T02:11:50.177Z,78.2
2019-01-21T02:12:16.282Z,78.1
2019-01-21T02:12:42.626Z,78.2
2019-01-21T02:13:08.734Z,78.1
2019-01-21T02:13:34.832Z,78.48
2019-01-21T02:14:01.207Z,78.2
2019-01-21T02:14:27.339Z,78.1
2019-01-21T02:14:53.769Z,78.48
2019-01-21T02:15:19.873Z,78.58
2019-01-21T02:15:45.986Z,78.86
2019-01-21T02:16:12.433Z,79.05
2019-01-21T02:16:38.531Z,78.67
2019-01-21T02:17:04.665Z,78.95
2019-01-21T02:17:31.040Z,79.05
2019-01-21T02:17:58.134Z,78.58
2019-01-21T02:18:24.263Z,78.86
2019-01-21T02:18:50.389Z,78.58
2019-01-21T02:19:16.500Z,77.91
2019-01-21T02:19:42.618Z,78.29
2019-01-21T02:20:08.718Z,78.2
2019-01-21T02:20:35.193Z,78.29
2019-01-21T02:21:01.318Z,78.2
2019-01-21T02:21:27.420Z,78.58
2019-01-21T02:21:53.871Z,78.48
2019-01-21T02:22:19.975Z,78.2
2019-01-21T02:22:46.067Z,78.48
2019-01-21T02:23:12.479Z,78.1
2019-01-21T02:23:38.582Z,78.1
2019-01-21T02:24:04.975Z,78.76
2019-01-21T02:24:31.077Z,78.48
2019-01-21T02:24:57.213Z,78.76
2019-01-21T02:25:23.526Z,78.39
2019-01-21T02:25:49.637Z,78.76
2019-01-21T02:26:15.952Z,78.86
2019-01-21T02:26:42.051Z,78.76
2019-01-21T02:27:08.156Z,78.67
2019-01-21T02:27:34.530Z,78.48
2019-01-21T02:28:00.633Z,78.58
2019-01-21T02:28:26.738Z,78.58
2019-01-21T02:28:53.122Z,78.48
2019-01-21T02:29:19.229Z,78.39
2019-01-21T02:29:45.549Z,78.48
2019-01-21T02:30:11.683Z,78.48
2019-01-21T02:30:37.789Z,78.58
2019-01-21T02:31:04.144Z,78.2
2019-01-21T02:31:30.241Z,77.91
2019-01-21T02:31:56.401Z,78.2
2019-01-21T02:32:22.539Z,77.53
2019-01-21T02:32:48.668Z,77.82
2019-01-21T02:33:15.186Z,77.91
2019-01-21T02:33:41.289Z,77.44
2019-01-21T02:34:07.652Z,77.53
2019-01-21T02:34:33.901Z,77.63
2019-01-21T02:35:00.058Z,77.63
2019-01-21T02:35:26.484Z,77.34
2019-01-21T02:35:52.619Z,77.82
2019-01-21T02:36:18.713Z,77.63
2019-01-21T02:36:44.953Z,77.82
2019-01-21T02:37:11.080Z,77.44
2019-01-21T02:37:37.419Z,77.63
2019-01-21T02:38:03.521Z,77.63
2019-01-21T02:38:29.619Z,77.63
2019-01-21T02:38:55.999Z,77.34
2019-01-21T02:39:22.100Z,77.63
2019-01-21T02:39:48.463Z,77.91
2019-01-21T02:40:14.560Z,77.72
2019-01-21T02:40:40.664Z,78.2
2019-01-21T02:41:06.829Z,78.1
2019-01-21T02:41:32.920Z,78.01
2019-01-21T02:41:59.028Z,78.1
2019-01-21T02:42:25.438Z,78.2
2019-01-21T02:42:51.541Z,77.53
2019-01-21T02:43:17.930Z,77.44
2019-01-21T02:43:44.036Z,77.63
2019-01-21T02:44:10.176Z,77.82
2019-01-21T02:44:36.274Z,77.44
2019-01-21T02:45:02.403Z,77.76
2019-01-21T02:45:28.778Z,77.44
2019-01-21T02:45:54.892Z,77.06
2019-01-21T02:46:21.037Z,77.06
2019-01-21T02:46:47.192Z,77.63
2019-01-21T02:47:13.294Z,77.67
2019-01-21T02:47:39.406Z,77.15
2019-01-21T02:48:06.731Z,77.72
2019-01-21T02:48:32.843Z,77.15
2019-01-21T02:48:59.230Z,77.1
2019-01-21T02:49:25.354Z,76.91
2019-01-21T02:49:51.455Z,76.91
2019-01-21T02:50:17.881Z,76.91
2019-01-21T02:50:44.008Z,77.29
2019-01-21T02:51:10.398Z,76.87
2019-01-21T02:51:36.526Z,77.1
2019-01-21T02:52:02.654Z,77.2
2019-01-21T02:52:28.959Z,77.1
2019-01-21T02:52:55.063Z,76.82
2019-01-21T02:53:21.162Z,76.63
2019-01-21T02:53:47.468Z,76.44
2019-01-21T02:54:13.606Z,76.72
2019-01-21T02:54:39.825Z,76.25
2019-01-21T02:55:05.952Z,76.53
2019-01-21T02:55:32.054Z,76.5
2019-01-21T02:55:58.241Z,76.4
2019-01-21T02:56:24.363Z,76.68
2019-01-21T02:56:50.685Z,76.53
2019-01-21T02:57:16.786Z,76.44
2019-01-21T02:57:42.945Z,76.44
2019-01-21T02:58:09.147Z,76.15
2019-01-21T02:58:35.258Z,76.59
2019-01-21T02:59:01.358Z,76.34
2019-01-21T02:59:27.640Z,76.25
2019-01-21T02:59:53.744Z,76.21
2019-01-21T03:00:20.013Z,76.5
2019-01-21T03:00:46.116Z,76.44
2019-01-21T03:01:12.255Z,76.12
2019-01-21T03:01:38.688Z,76.15
2019-01-21T03:02:04.902Z,76.25
2019-01-21T03:02:31.313Z,76.06
2019-01-21T03:02:57.436Z,76.44
2019-01-21T03:03:23.545Z,76.4
2019-01-21T03:03:50.102Z,76.31
2019-01-21T03:04:16.240Z,76.31
2019-01-21T03:04:42.599Z,76.59
2019-01-21T03:05:08.721Z,76.21
2019-01-21T03:05:34.838Z,76.5
2019-01-21T03:06:01.014Z,76.31
2019-01-21T03:06:27.103Z,76.5
2019-01-21T03:06:53.192Z,76.21
2019-01-21T03:07:19.544Z,76.21
2019-01-21T03:07:45.660Z,76.4
2019-01-21T03:08:11.995Z,76.4
2019-01-21T03:08:38.113Z,76.4
2019-01-21T03:09:04.217Z,76.4
2019-01-21T03:09:30.607Z,76.31
2019-01-21T03:09:56.708Z,76.5
2019-01-21T03:10:23.021Z,76.31
2019-01-21T03:10:49.124Z,76.5
2019-01-21T03:11:15.228Z,76.31
2019-01-21T03:11:41.624Z,76.68
2019-01-21T03:12:07.723Z,76.78
2019-01-21T03:12:33.833Z,76.4
2019-01-21T03:13:00.180Z,76.12
2019-01-21T03:13:26.314Z,76.21
2019-01-21T03:13:52.653Z,76.12
2019-01-21T03:14:18.762Z,76.78
2019-01-21T03:14:44.867Z,76.68
2019-01-21T03:15:11.310Z,76.5
2019-01-21T03:15:37.439Z,76.12
2019-01-21T03:16:03.857Z,76.59
2019-01-21T03:16:29.940Z,76.68
2019-01-21T03:16:56.039Z,76.5
2019-01-21T03:17:22.361Z,76.21
2019-01-21T03:17:48.515Z,76.59
2019-01-21T03:18:15.635Z,76.5
2019-01-21T03:18:43.591Z,76.31
2019-01-21T03:19:09.108Z,76.31
2019-01-21T03:19:35.263Z,75.93
2019-01-21T03:20:01.454Z,76.4
2019-01-21T03:20:27.606Z,76.31
2019-01-21T03:20:53.808Z,76.31
2019-01-21T03:21:19.941Z,76.31
2019-01-21T03:21:46.272Z,76.68
2019-01-21T03:22:12.377Z,76.59
2019-01-21T03:22:38.475Z,76.21
2019-01-21T03:23:04.892Z,76.68
2019-01-21T03:23:30.995Z,76.31
2019-01-21T03:23:57.125Z,76.21
2019-01-21T03:24:23.311Z,75.55
2019-01-21T03:24:49.412Z,75.93
2019-01-21T03:25:15.894Z,75.93
2019-01-21T03:25:41.996Z,75.93
2019-01-21T03:26:08.110Z,75.55
2019-01-21T03:26:34.375Z,75.83
2019-01-21T03:27:00.481Z,76.02
2019-01-21T03:27:26.978Z,75.74
2019-01-21T03:27:53.113Z,76.21
2019-01-21T03:28:19.246Z,76.12
2019-01-21T03:28:45.657Z,75.93
2019-01-21T03:29:11.786Z,76.4
2019-01-21T03:29:38.199Z,75.83
2019-01-21T03:30:04.293Z,75.74
2019-01-21T03:30:30.431Z,75.45
2019-01-21T03:30:56.582Z,76.02
2019-01-21T03:31:22.715Z,76.21
2019-01-21T03:31:48.817Z,76.12
2019-01-21T03:32:15.078Z,76.4
2019-01-21T03:32:41.269Z,76.5
2019-01-21T03:33:07.649Z,76.21
2019-01-21T03:33:33.871Z,76.21
2019-01-21T03:34:00.038Z,76.4
2019-01-21T03:34:26.360Z,76.21
2019-01-21T03:34:52.508Z,76.5
2019-01-21T03:35:18.882Z,76.02
2019-01-21T03:35:45.091Z,76.4
2019-01-21T03:36:11.258Z,76.5
2019-01-21T03:36:37.730Z,76.31
2019-01-21T03:37:03.860Z,76.4
2019-01-21T03:37:29.960Z,76.02
2019-01-21T03:37:56.292Z,76.21
2019-01-21T03:38:22.396Z,76.02
2019-01-21T03:38:48.788Z,76.02
2019-01-21T03:39:14.895Z,76.02
2019-01-21T03:39:41.041Z,76.5
2019-01-21T03:40:07.326Z,76.31
2019-01-21T03:40:33.431Z,76.21
2019-01-21T03:40:59.752Z,76.02
2019-01-21T03:41:25.883Z,75.74
2019-01-21T03:41:52.044Z,75.93
2019-01-21T03:42:18.173Z,75.55
2019-01-21T03:42:44.304Z,75.83
2019-01-21T03:43:10.402Z,75.93
2019-01-21T03:43:36.825Z,75.36
2019-01-21T03:44:02.928Z,75.74
2019-01-21T03:44:29.072Z,75.64
2019-01-21T03:44:55.205Z,75.64
2019-01-21T03:45:21.353Z,75.64
2019-01-21T03:45:47.783Z,75.83
2019-01-21T03:46:13.882Z,75.64
2019-01-21T03:46:40.331Z,75.68
2019-01-21T03:47:06.434Z,75.68
2019-01-21T03:47:32.565Z,75.49
2019-01-21T03:47:58.914Z,75.87
2019-01-21T03:48:26.028Z,75.12
2019-01-21T03:48:52.122Z,75.4
2019-01-21T03:49:18.443Z,75.4
2019-01-21T03:49:44.568Z,74.93
2019-01-21T03:50:10.689Z,74.98
2019-01-21T03:50:36.816Z,75.4
2019-01-21T03:51:02.925Z,75.12
2019-01-21T03:51:29.282Z,74.45
2019-01-21T03:51:55.386Z,74.26
2019-01-21T03:52:21.651Z,74.32
2019-01-21T03:52:47.784Z,74.79
2019-01-21T03:53:13.887Z,74.51
2019-01-21T03:53:40.267Z,74.79
2019-01-21T03:54:06.416Z,74.6
2019-01-21T03:54:32.522Z,74.32
2019-01-21T03:54:58.792Z,74.6
2019-01-21T03:55:24.913Z,74.32
2019-01-21T03:55:51.203Z,74.41
2019-01-21T03:56:17.313Z,74.6
2019-01-21T03:56:43.441Z,74.69
2019-01-21T03:57:09.756Z,74.69
2019-01-21T03:57:35.860Z,74.51
2019-01-21T03:58:02.171Z,74.32
2019-01-21T03:58:28.307Z,75.55
2019-01-21T03:58:54.436Z,74.69
2019-01-21T03:59:20.725Z,74.98
2019-01-21T03:59:46.865Z,74.79
2019-01-21T04:00:12.972Z,75.36
2019-01-21T04:00:39.117Z,75.26
2019-01-21T04:01:05.227Z,75.26
2019-01-21T04:01:31.458Z,75.36
2019-01-21T04:01:57.561Z,75.26
2019-01-21T04:02:23.664Z,75.64
2019-01-21T04:02:50.009Z,75.64
2019-01-21T04:03:16.114Z,75.64
2019-01-21T04:03:42.428Z,75.64
2019-01-21T04:04:08.524Z,76.02
2019-01-21T04:04:34.665Z,75.74
2019-01-21T04:05:01.120Z,75.83
2019-01-21T04:05:27.252Z,75.64
2019-01-21T04:05:53.613Z,75.55
2019-01-21T04:06:19.794Z,75.83
2019-01-21T04:06:45.898Z,75.83
2019-01-21T04:07:12.366Z,75.55
2019-01-21T04:07:38.462Z,75.83
2019-01-21T04:08:04.570Z,75.83
2019-01-21T04:08:31.038Z,75.55
2019-01-21T04:08:57.143Z,75.93
2019-01-21T04:09:23.489Z,76.02
2019-01-21T04:09:49.613Z,75.64
2019-01-21T04:10:15.988Z,75.83
2019-01-21T04:10:42.365Z,75.74
2019-01-21T04:11:08.494Z,75.83
2019-01-21T04:11:34.851Z,75.83
2019-01-21T04:12:00.951Z,75.55
2019-01-21T04:12:27.057Z,75.83
2019-01-21T04:12:53.390Z,75.83
2019-01-21T04:13:19.494Z,75.74
2019-01-21T04:13:45.624Z,75.64
2019-01-21T04:14:11.976Z,75.93
2019-01-21T04:14:38.076Z,75.83
2019-01-21T04:15:04.360Z,75.55
2019-01-21T04:15:30.521Z,75.83
2019-01-21T04:15:56.622Z,75.45
2019-01-21T04:16:22.992Z,75.64
2019-01-21T04:16:49.093Z,76.02
2019-01-21T04:17:15.481Z,75.83
2019-01-21T04:17:41.579Z,75.83
2019-01-21T04:18:07.770Z,75.83
2019-01-21T04:18:35.230Z,75.74
2019-01-21T04:19:01.424Z,75.64
2019-01-21T04:19:27.524Z,75.83
2019-01-21T04:19:53.910Z,75.74
2019-01-21T04:20:20.016Z,75.55
2019-01-21T04:20:47.279Z,75.45
2019-01-21T04:21:13.383Z,75.93
2019-01-21T04:21:39.516Z,75.36
2019-01-21T04:22:05.870Z,75.93
2019-01-21T04:22:31.974Z,75.64
2019-01-21T04:22:58.352Z,75.83
2019-01-21T04:23:24.485Z,76.12
2019-01-21T04:23:50.618Z,76.31
2019-01-21T04:24:16.925Z,76.21
2019-01-21T04:24:43.026Z,76.5
2019-01-21T04:25:09.133Z,76.59
2019-01-21T04:25:35.451Z,76.78
2019-01-21T04:26:01.578Z,76.21
2019-01-21T04:26:27.889Z,76.21
2019-01-21T04:26:53.992Z,76.31
2019-01-21T04:27:20.093Z,76.31
2019-01-21T04:27:46.452Z,76.21
2019-01-21T04:28:12.554Z,76.31
2019-01-21T04:28:38.868Z,76.21
2019-01-21T04:29:04.977Z,76.31
2019-01-21T04:29:31.078Z,76.59
2019-01-21T04:29:57.348Z,76.12
2019-01-21T04:30:23.474Z,76.12
2019-01-21T04:30:49.578Z,76.4
2019-01-21T04:31:15.793Z,76.31
2019-01-21T04:31:42.205Z,76.21
2019-01-21T04:32:08.940Z,76.12
2019-01-21T04:32:35.039Z,76.4
2019-01-21T04:33:01.141Z,76.12
2019-01-21T04:33:27.415Z,75.74
2019-01-21T04:33:53.529Z,76.31
2019-01-21T04:34:19.898Z,76.31
2019-01-21T04:34:46.002Z,76.31
2019-01-21T04:35:12.101Z,76.21
2019-01-21T04:35:38.413Z,76.45
2019-01-21T04:36:04.518Z,76.17
2019-01-21T04:36:30.640Z,76.31
2019-01-21T04:36:56.746Z,76.4
2019-01-21T04:37:22.880Z,76.68
2019-01-21T04:37:49.997Z,76.68
2019-01-21T04:38:16.129Z,76.45
2019-01-21T04:38:42.227Z,76.55
2019-01-21T04:39:08.545Z,76.64
2019-01-21T04:39:34.650Z,77.4
2019-01-21T04:40:00.996Z,77.02
2019-01-21T04:40:27.128Z,77.12
2019-01-21T04:40:53.229Z,76.83
2019-01-21T04:41:19.565Z,76.93
2019-01-21T04:41:45.673Z,77.78
2019-01-21T04:42:12.143Z,77.69
2019-01-21T04:42:38.272Z,77.31
2019-01-21T04:43:04.409Z,77.59
2019-01-21T04:43:30.858Z,77.59
2019-01-21T04:43:56.983Z,77.78
2019-01-21T04:44:23.122Z,77.59
2019-01-21T04:44:49.552Z,77.69
2019-01-21T04:45:15.708Z,77.59
2019-01-21T04:45:42.011Z,77.59
2019-01-21T04:46:08.144Z,77.59
2019-01-21T04:46:34.902Z,77.78
2019-01-21T04:47:01.198Z,77.59
2019-01-21T04:47:27.357Z,77.5
2019-01-21T04:47:53.689Z,77.59
2019-01-21T04:48:19.786Z,77.59
2019-01-21T04:48:46.905Z,77.5
2019-01-21T04:49:13.219Z,77.4
2019-01-21T04:49:39.358Z,77.5
2019-01-21T04:50:05.457Z,77.4
2019-01-21T04:50:31.751Z,77.59
2019-01-21T04:50:57.906Z,77.78
2019-01-21T04:51:24.222Z,76.93
2019-01-21T04:51:50.356Z,77.31
2019-01-21T04:52:16.454Z,77.78
2019-01-21T04:52:42.785Z,77.5
2019-01-21T04:53:09.878Z,77.78
2019-01-21T04:53:36.331Z,77.97
2019-01-21T04:54:02.428Z,77.78
2019-01-21T04:54:28.535Z,77.69
2019-01-21T04:54:54.881Z,77.59
2019-01-21T04:55:21.199Z,78.06
2019-01-21T04:55:47.565Z,78.16
2019-01-21T04:56:13.661Z,77.87
2019-01-21T04:56:39.771Z,77.97
2019-01-21T04:57:06.246Z,77.87
2019-01-21T04:57:32.344Z,78.06
2019-01-21T04:57:58.455Z,78.44
2019-01-21T04:58:24.599Z,78.25
2019-01-21T04:58:50.725Z,78.34
2019-01-21T04:59:17.188Z,78.06
2019-01-21T04:59:43.343Z,78.25
2019-01-21T05:00:09.440Z,78.16
2019-01-21T05:00:35.821Z,78.25
2019-01-21T05:01:01.944Z,78.16
2019-01-21T05:01:28.315Z,78.53
2019-01-21T05:01:54.450Z,78.81
2019-01-21T05:02:20.553Z,78.63
2019-01-21T05:02:46.918Z,78.53
2019-01-21T05:03:13.026Z,78.25
2019-01-21T05:03:39.126Z,78.34
2019-01-21T05:04:05.726Z,78.72
2019-01-21T05:04:31.890Z,78.06
2019-01-21T05:04:58.356Z,78.06
2019-01-21T05:05:24.461Z,78.63
2019-01-21T05:05:50.557Z,78.34
2019-01-21T05:06:16.895Z,78.16
2019-01-21T05:06:42.997Z,78.34
2019-01-21T05:07:09.404Z,78.44
2019-01-21T05:07:35.503Z,78.63
2019-01-21T05:08:01.610Z,78.44
2019-01-21T05:08:27.951Z,78.44
2019-01-21T05:08:54.049Z,78.16
2019-01-21T05:09:20.184Z,77.97
2019-01-21T05:09:46.529Z,77.87
2019-01-21T05:10:12.631Z,78.16
2019-01-21T05:10:38.899Z,77.87
2019-01-21T05:11:05.002Z,77.59
2019-01-21T05:11:31.160Z,78.16
2019-01-21T05:11:57.601Z,77.87
2019-01-21T05:12:23.763Z,77.78
2019-01-21T05:12:50.076Z,77.97
2019-01-21T05:13:16.235Z,78.16
2019-01-21T05:13:42.338Z,77.59
2019-01-21T05:14:08.728Z,77.69
2019-01-21T05:14:34.857Z,77.4
2019-01-21T05:15:00.956Z,77.4
2019-01-21T05:15:27.329Z,77.59
2019-01-21T05:15:53.433Z,77.5
2019-01-21T05:16:19.562Z,77.78
2019-01-21T05:16:45.690Z,77.21
2019-01-21T05:17:11.820Z,77.59
2019-01-21T05:17:38.197Z,77.31
2019-01-21T05:18:04.308Z,76.74
2019-01-21T05:18:30.611Z,76.83
2019-01-21T05:18:57.729Z,77.02
2019-01-21T05:19:23.866Z,77.21
2019-01-21T05:19:50.115Z,77.12
2019-01-21T05:20:16.215Z,76.55
2019-01-21T05:20:42.321Z,76.64
2019-01-21T05:21:08.677Z,76.45
2019-01-21T05:21:34.775Z,76.45
2019-01-21T05:22:01.207Z,76.45
2019-01-21T05:22:27.376Z,76.36
2019-01-21T05:22:53.501Z,76.45
2019-01-21T05:23:19.845Z,76.26
2019-01-21T05:23:45.947Z,76.36
2019-01-21T05:24:12.301Z,76.45
2019-01-21T05:24:38.405Z,76.74
2019-01-21T05:25:04.504Z,76.74
2019-01-21T05:25:31.484Z,76.55
2019-01-21T05:25:57.642Z,76.45
2019-01-21T05:26:23.750Z,76.83
2019-01-21T05:26:49.900Z,76.83
2019-01-21T05:27:16.040Z,76.74
2019-01-21T05:27:42.403Z,76.93
2019-01-21T05:28:08.503Z,76.45
2019-01-21T05:28:34.606Z,76.36
2019-01-21T05:29:00.953Z,76.64
2019-01-21T05:29:27.045Z,76.45
2019-01-21T05:29:53.342Z,76.55
2019-01-21T05:30:19.445Z,76.45
2019-01-21T05:30:45.547Z,76.45
2019-01-21T05:31:11.925Z,76.83
2019-01-21T05:31:38.026Z,76.45
2019-01-21T05:32:04.129Z,77.21
2019-01-21T05:32:30.514Z,77.21
2019-01-21T05:32:56.675Z,76.55
2019-01-21T05:33:23.027Z,76.64
2019-01-21T05:33:49.129Z,76.74
2019-01-21T05:34:15.230Z,76.64
2019-01-21T05:34:41.491Z,76.93
2019-01-21T05:35:07.590Z,77.02
2019-01-21T05:35:33.985Z,76.55
2019-01-21T05:36:00.115Z,76.64
2019-01-21T05:36:26.224Z,77.12
2019-01-21T05:36:52.518Z,77.21
2019-01-21T05:37:18.650Z,77.12
2019-01-21T05:37:44.759Z,76.83
2019-01-21T05:38:11.122Z,77.02
2019-01-21T05:38:37.227Z,76.93